SYN002 EBBR-EGKK
Flight info
| Callsign | SYN002 |
|---|---|
| Flight time | 1h 7m |
| Altitude | 28000 |
| Route | DENUT L610 TEBRA |
| Aircraft | BCS3/M-SBDE2E3GIRWXY/LB1 |
Departure
| Time | 2026-05-07 19:08 |
|---|---|
| Airport | Brussels Airport (EBBR) |
Arrival
| Time | 2026-05-07 20:15 |
|---|---|
| Airport | London Gatwick Airport (EGKK) |
| Time | Latitude | Longitude | Altitude | Speed | Heading |
|---|---|---|---|---|---|
| 2026-05-07 18:32 | 50.90482 | 4.48842 | 118 ft | 0 kts | 156° |
| 2026-05-07 19:01 | 50.90490 | 4.48837 | 117 ft | 2 kts | 156° |
| 2026-05-07 19:01 | 50.90505 | 4.48826 | 117 ft | 2 kts | 152° |
| 2026-05-07 19:02 | 50.90518 | 4.48811 | 117 ft | 2 kts | 126° |
| 2026-05-07 19:02 | 50.90525 | 4.48789 | 115 ft | 2 kts | 100° |
| 2026-05-07 19:02 | 50.90526 | 4.48774 | 115 ft | 0 kts | 93° |
| 2026-05-07 19:04 | 50.90527 | 4.48776 | 120 ft | 0 kts | 82° |
| 2026-05-07 19:04 | 50.90533 | 4.48785 | 120 ft | 4 kts | 40° |
| 2026-05-07 19:05 | 50.90580 | 4.48855 | 118 ft | 12 kts | 52° |
| 2026-05-07 19:05 | 50.90615 | 4.48970 | 116 ft | 12 kts | 65° |
| 2026-05-07 19:05 | 50.90674 | 4.49084 | 114 ft | 15 kts | 17° |
| 2026-05-07 19:05 | 50.90753 | 4.49171 | 116 ft | 10 kts | 66° |
| 2026-05-07 19:06 | 50.90787 | 4.49287 | 115 ft | 13 kts | 65° |
| 2026-05-07 19:06 | 50.90882 | 4.49618 | 114 ft | 19 kts | 66° |
| 2026-05-07 19:06 | 50.90952 | 4.49816 | 112 ft | 20 kts | 44° |
| 2026-05-07 19:07 | 50.91086 | 4.49936 | 106 ft | 22 kts | 16° |
| 2026-05-07 19:07 | 50.91134 | 4.49936 | 107 ft | 0 kts | 325° |
| 2026-05-07 19:07 | 50.91137 | 4.49928 | 107 ft | 3 kts | 307° |
| 2026-05-07 19:07 | 50.91134 | 4.49875 | 107 ft | 9 kts | 245° |
| 2026-05-07 19:08 | 50.91046 | 4.49561 | 112 ft | 63 kts | 246° |
| 2026-05-07 19:08 | 50.90778 | 4.48630 | 115 ft | 121 kts | 245° |
| 2026-05-07 19:08 | 50.90392 | 4.47313 | 554 ft | 129 kts | 244° |
| 2026-05-07 19:08 | 50.90012 | 4.45934 | 1020 ft | 143 kts | 257° |
| 2026-05-07 19:09 | 50.90033 | 4.44377 | 1730 ft | 146 kts | 287° |
| 2026-05-07 19:09 | 50.90462 | 4.42885 | 2491 ft | 153 kts | 299° |
| 2026-05-07 19:09 | 50.90994 | 4.41321 | 3168 ft | 169 kts | 299° |
| 2026-05-07 19:09 | 50.91432 | 4.39511 | 3854 ft | 184 kts | 282° |
| 2026-05-07 19:10 | 50.91650 | 4.37425 | 4549 ft | 201 kts | 278° |
| 2026-05-07 19:10 | 50.91856 | 4.35147 | 5278 ft | 216 kts | 278° |
| 2026-05-07 19:10 | 50.92078 | 4.32714 | 6046 ft | 231 kts | 278° |
| 2026-05-07 19:10 | 50.92338 | 4.30139 | 6803 ft | 244 kts | 282° |
| 2026-05-07 19:11 | 50.92996 | 4.27548 | 7503 ft | 262 kts | 300° |
| 2026-05-07 19:11 | 50.94093 | 4.25138 | 8267 ft | 277 kts | 308° |
| 2026-05-07 19:11 | 50.95310 | 4.22756 | 9289 ft | 280 kts | 308° |
| 2026-05-07 19:11 | 50.96544 | 4.20332 | 10148 ft | 285 kts | 308° |
| 2026-05-07 19:12 | 50.97806 | 4.17839 | 10705 ft | 298 kts | 308° |
| 2026-05-07 19:12 | 50.99133 | 4.15205 | 11135 ft | 313 kts | 307° |
| 2026-05-07 19:12 | 51.00516 | 4.12452 | 11732 ft | 320 kts | 307° |
| 2026-05-07 19:12 | 51.01912 | 4.09666 | 12421 ft | 324 kts | 307° |
| 2026-05-07 19:13 | 51.03321 | 4.06846 | 13128 ft | 329 kts | 307° |
| 2026-05-07 19:13 | 51.04747 | 4.03987 | 13849 ft | 332 kts | 307° |
| 2026-05-07 19:13 | 51.06186 | 4.01099 | 14512 ft | 335 kts | 307° |
| 2026-05-07 19:13 | 51.07636 | 3.98181 | 15181 ft | 337 kts | 307° |
| 2026-05-07 19:14 | 51.09092 | 3.95247 | 15838 ft | 340 kts | 307° |
| 2026-05-07 19:14 | 51.10563 | 3.92279 | 16532 ft | 343 kts | 307° |
| 2026-05-07 19:14 | 51.12047 | 3.89281 | 17261 ft | 346 kts | 307° |
| 2026-05-07 19:14 | 51.13538 | 3.86264 | 17967 ft | 349 kts | 307° |
| 2026-05-07 19:15 | 51.15046 | 3.83209 | 18643 ft | 352 kts | 307° |
| 2026-05-07 19:15 | 51.16569 | 3.80121 | 19249 ft | 355 kts | 307° |
| 2026-05-07 19:15 | 51.18097 | 3.77018 | 19861 ft | 358 kts | 307° |
| 2026-05-07 19:15 | 51.19639 | 3.73883 | 20477 ft | 360 kts | 306° |
| 2026-05-07 19:16 | 51.21191 | 3.70723 | 21056 ft | 363 kts | 306° |
| 2026-05-07 19:16 | 51.22674 | 3.67451 | 21616 ft | 365 kts | 299° |
| 2026-05-07 19:16 | 51.23742 | 3.63791 | 22218 ft | 365 kts | 288° |
| 2026-05-07 19:16 | 51.24404 | 3.59872 | 22777 ft | 367 kts | 281° |
| 2026-05-07 19:17 | 51.24948 | 3.55878 | 23341 ft | 369 kts | 281° |
| 2026-05-07 19:17 | 51.25481 | 3.51854 | 23833 ft | 373 kts | 281° |
| 2026-05-07 19:17 | 51.26021 | 3.47762 | 24057 ft | 382 kts | 281° |
| 2026-05-07 19:17 | 51.26568 | 3.43613 | 24087 ft | 378 kts | 281° |
| 2026-05-07 19:18 | 51.27100 | 3.39562 | 24082 ft | 369 kts | 280° |
| 2026-05-07 19:18 | 51.27613 | 3.35596 | 24089 ft | 373 kts | 280° |
| 2026-05-07 19:18 | 51.28147 | 3.31441 | 24083 ft | 377 kts | 280° |
| 2026-05-07 19:18 | 51.28662 | 3.27424 | 24078 ft | 372 kts | 280° |
| 2026-05-07 19:19 | 51.29186 | 3.23330 | 24080 ft | 372 kts | 280° |
| 2026-05-07 19:19 | 51.29698 | 3.19319 | 24073 ft | 375 kts | 280° |
| 2026-05-07 19:19 | 51.30216 | 3.15249 | 24077 ft | 372 kts | 280° |
| 2026-05-07 19:19 | 51.30730 | 3.11198 | 24079 ft | 373 kts | 280° |
| 2026-05-07 19:20 | 51.31245 | 3.07127 | 24081 ft | 374 kts | 280° |
| 2026-05-07 19:20 | 51.31759 | 3.03063 | 24077 ft | 373 kts | 280° |
| 2026-05-07 19:20 | 51.32270 | 2.99003 | 24072 ft | 373 kts | 280° |
| 2026-05-07 19:20 | 51.32781 | 2.94930 | 24075 ft | 374 kts | 280° |
| 2026-05-07 19:21 | 51.33290 | 2.90863 | 24077 ft | 373 kts | 280° |
| 2026-05-07 19:21 | 51.33796 | 2.86803 | 24076 ft | 373 kts | 280° |
| 2026-05-07 19:21 | 51.34303 | 2.82731 | 24074 ft | 373 kts | 280° |
| 2026-05-07 19:21 | 51.34807 | 2.78660 | 24075 ft | 372 kts | 280° |
| 2026-05-07 19:22 | 51.35306 | 2.74629 | 24075 ft | 367 kts | 280° |
| 2026-05-07 19:22 | 51.35799 | 2.70649 | 24076 ft | 364 kts | 280° |
| 2026-05-07 19:22 | 51.36292 | 2.66660 | 24079 ft | 367 kts | 280° |
| 2026-05-07 19:22 | 51.36785 | 2.62649 | 24075 ft | 366 kts | 280° |
| 2026-05-07 19:23 | 51.37276 | 2.58657 | 24080 ft | 365 kts | 280° |
| 2026-05-07 19:23 | 51.37764 | 2.54668 | 24081 ft | 367 kts | 280° |
| 2026-05-07 19:23 | 51.38254 | 2.50653 | 24082 ft | 366 kts | 279° |
| 2026-05-07 19:23 | 51.38740 | 2.46663 | 24078 ft | 365 kts | 279° |
| 2026-05-07 19:24 | 51.39225 | 2.42665 | 24079 ft | 366 kts | 279° |
| 2026-05-07 19:24 | 51.39709 | 2.38664 | 24084 ft | 366 kts | 279° |
| 2026-05-07 19:24 | 51.40191 | 2.34662 | 24074 ft | 366 kts | 279° |
| 2026-05-07 19:24 | 51.40675 | 2.30631 | 23703 ft | 371 kts | 279° |
| 2026-05-07 19:25 | 51.41161 | 2.26580 | 23216 ft | 369 kts | 279° |
| 2026-05-07 19:25 | 51.41649 | 2.22561 | 22790 ft | 365 kts | 280° |
| 2026-05-07 19:25 | 51.42134 | 2.18611 | 22408 ft | 360 kts | 280° |
| 2026-05-07 19:25 | 51.42613 | 2.14692 | 22024 ft | 356 kts | 280° |
| 2026-05-07 19:26 | 51.43086 | 2.10808 | 21631 ft | 356 kts | 280° |
| 2026-05-07 19:26 | 51.43558 | 2.06919 | 21242 ft | 354 kts | 280° |
| 2026-05-07 19:26 | 51.44026 | 2.03053 | 20856 ft | 352 kts | 280° |
| 2026-05-07 19:26 | 51.44489 | 1.99208 | 20476 ft | 351 kts | 279° |
| 2026-05-07 19:27 | 51.44944 | 1.95374 | 20091 ft | 350 kts | 279° |
| 2026-05-07 19:27 | 51.45395 | 1.91552 | 19718 ft | 348 kts | 279° |
| 2026-05-07 19:27 | 51.45843 | 1.87737 | 19330 ft | 347 kts | 279° |
| 2026-05-07 19:27 | 51.46285 | 1.83950 | 18959 ft | 345 kts | 279° |
| 2026-05-07 19:28 | 51.46723 | 1.80169 | 18577 ft | 344 kts | 279° |
| 2026-05-07 19:28 | 51.47159 | 1.76400 | 18171 ft | 342 kts | 279° |
| 2026-05-07 19:28 | 51.47589 | 1.72672 | 17767 ft | 340 kts | 279° |
| 2026-05-07 19:28 | 51.48011 | 1.68995 | 17394 ft | 339 kts | 279° |
| 2026-05-07 19:29 | 51.48428 | 1.65284 | 17024 ft | 337 kts | 277° |
| 2026-05-07 19:29 | 51.48503 | 1.61540 | 16621 ft | 335 kts | 264° |
| 2026-05-07 19:29 | 51.48064 | 1.57900 | 16264 ft | 331 kts | 252° |
| 2026-05-07 19:29 | 51.47333 | 1.54411 | 15908 ft | 330 kts | 249° |
| 2026-05-07 19:30 | 51.46547 | 1.50953 | 15547 ft | 329 kts | 249° |
| 2026-05-07 19:30 | 51.45758 | 1.47528 | 15196 ft | 326 kts | 249° |
| 2026-05-07 19:30 | 51.44971 | 1.44118 | 14840 ft | 326 kts | 249° |
| 2026-05-07 19:30 | 51.44151 | 1.40746 | 14472 ft | 324 kts | 243° |
| 2026-05-07 19:31 | 51.42963 | 1.37714 | 14159 ft | 320 kts | 230° |
| 2026-05-07 19:31 | 51.41389 | 1.35228 | 14040 ft | 316 kts | 219° |
| 2026-05-07 19:31 | 51.39650 | 1.33040 | 14053 ft | 321 kts | 217° |
| 2026-05-07 19:31 | 51.37860 | 1.30894 | 14066 ft | 321 kts | 216° |
| 2026-05-07 19:32 | 51.36075 | 1.28774 | 14072 ft | 320 kts | 216° |
| 2026-05-07 19:32 | 51.34282 | 1.26650 | 14073 ft | 321 kts | 216° |
| 2026-05-07 19:32 | 51.32489 | 1.24529 | 14076 ft | 320 kts | 216° |
| 2026-05-07 19:32 | 51.30701 | 1.22417 | 14074 ft | 321 kts | 216° |
| 2026-05-07 19:33 | 51.28905 | 1.20299 | 14072 ft | 320 kts | 216° |
| 2026-05-07 19:33 | 51.27111 | 1.18184 | 14074 ft | 320 kts | 216° |
| 2026-05-07 19:33 | 51.25317 | 1.16073 | 14075 ft | 321 kts | 216° |
| 2026-05-07 19:33 | 51.23522 | 1.13962 | 14073 ft | 321 kts | 216° |
| 2026-05-07 19:34 | 51.21727 | 1.11854 | 14072 ft | 320 kts | 216° |
| 2026-05-07 19:34 | 51.19929 | 1.09744 | 14077 ft | 321 kts | 216° |
| 2026-05-07 19:34 | 51.18134 | 1.07641 | 14073 ft | 321 kts | 216° |
| 2026-05-07 19:34 | 51.16337 | 1.05536 | 14065 ft | 320 kts | 216° |
| 2026-05-07 19:35 | 51.14533 | 1.03427 | 13828 ft | 323 kts | 216° |
| 2026-05-07 19:35 | 51.12735 | 1.01325 | 13508 ft | 318 kts | 216° |
| 2026-05-07 19:35 | 51.10959 | 0.99252 | 13188 ft | 316 kts | 216° |
| 2026-05-07 19:35 | 51.09185 | 0.97183 | 12872 ft | 316 kts | 216° |
| 2026-05-07 19:36 | 51.07425 | 0.95121 | 12557 ft | 313 kts | 218° |
| 2026-05-07 19:36 | 51.05894 | 0.92681 | 12248 ft | 313 kts | 232° |
| 2026-05-07 19:36 | 51.04754 | 0.89755 | 12092 ft | 310 kts | 242° |
| 2026-05-07 19:36 | 51.03801 | 0.86683 | 12051 ft | 312 kts | 244° |
| 2026-05-07 19:37 | 51.02859 | 0.83543 | 11814 ft | 314 kts | 244° |
| 2026-05-07 19:37 | 51.02243 | 0.81479 | 11619 ft | 311 kts | 244° |
| 2026-05-07 19:37 | 51.01316 | 0.78381 | 11248 ft | 309 kts | 244° |
| 2026-05-07 19:37 | 51.00399 | 0.75314 | 10883 ft | 307 kts | 244° |
| 2026-05-07 19:38 | 50.99484 | 0.72263 | 10505 ft | 304 kts | 244° |
| 2026-05-07 19:38 | 50.98590 | 0.69284 | 10177 ft | 292 kts | 244° |
| 2026-05-07 19:38 | 50.97736 | 0.66438 | 9864 ft | 281 kts | 244° |
| 2026-05-07 19:38 | 50.96905 | 0.63677 | 9461 ft | 273 kts | 244° |
| 2026-05-07 19:39 | 50.96101 | 0.61006 | 9130 ft | 262 kts | 244° |
| 2026-05-07 19:39 | 50.95343 | 0.58492 | 9056 ft | 244 kts | 244° |
| 2026-05-07 19:39 | 50.94616 | 0.56085 | 9064 ft | 243 kts | 244° |
| 2026-05-07 19:39 | 50.93881 | 0.53655 | 8968 ft | 244 kts | 244° |
| 2026-05-07 19:40 | 50.93151 | 0.51240 | 8973 ft | 243 kts | 244° |
| 2026-05-07 19:40 | 50.92419 | 0.48822 | 8981 ft | 244 kts | 244° |
| 2026-05-07 19:40 | 50.91761 | 0.46347 | 8972 ft | 244 kts | 254° |
| 2026-05-07 19:40 | 50.91558 | 0.43689 | 8987 ft | 244 kts | 271° |
| 2026-05-07 19:41 | 50.91837 | 0.41036 | 8984 ft | 245 kts | 283° |
| 2026-05-07 19:41 | 50.92298 | 0.38431 | 8975 ft | 246 kts | 285° |
| 2026-05-07 19:41 | 50.92777 | 0.35839 | 8972 ft | 245 kts | 285° |
| 2026-05-07 19:41 | 50.93256 | 0.33241 | 8975 ft | 245 kts | 285° |
| 2026-05-07 19:42 | 50.93734 | 0.30646 | 8971 ft | 245 kts | 285° |
| 2026-05-07 19:42 | 50.94211 | 0.28053 | 8969 ft | 245 kts | 285° |
| 2026-05-07 19:42 | 50.94686 | 0.25455 | 8975 ft | 245 kts | 285° |
| 2026-05-07 19:42 | 50.95159 | 0.22868 | 8980 ft | 245 kts | 285° |
| 2026-05-07 19:43 | 50.95626 | 0.20310 | 8982 ft | 245 kts | 285° |
| 2026-05-07 19:43 | 50.96099 | 0.17717 | 8933 ft | 247 kts | 285° |
| 2026-05-07 19:43 | 50.96577 | 0.15090 | 8672 ft | 246 kts | 285° |
| 2026-05-07 19:43 | 50.97047 | 0.12505 | 8471 ft | 243 kts | 285° |
| 2026-05-07 19:44 | 50.97516 | 0.09928 | 8200 ft | 243 kts | 285° |
| 2026-05-07 19:44 | 50.97979 | 0.07377 | 8075 ft | 239 kts | 285° |
| 2026-05-07 19:44 | 50.98444 | 0.04814 | 7876 ft | 244 kts | 285° |
| 2026-05-07 19:44 | 50.98906 | 0.02242 | 7656 ft | 241 kts | 283° |
| 2026-05-07 19:45 | 50.99042 | -0.00397 | 7445 ft | 240 kts | 270° |
| 2026-05-07 19:45 | 50.99069 | -0.03046 | 7232 ft | 240 kts | 270° |
| 2026-05-07 19:45 | 50.99091 | -0.05689 | 7092 ft | 238 kts | 270° |
| 2026-05-07 19:45 | 50.99111 | -0.08281 | 7075 ft | 239 kts | 270° |
| 2026-05-07 19:46 | 50.99129 | -0.10923 | 7064 ft | 240 kts | 270° |
| 2026-05-07 19:46 | 50.99147 | -0.13570 | 7053 ft | 240 kts | 270° |
| 2026-05-07 19:46 | 50.99165 | -0.16210 | 7065 ft | 239 kts | 270° |
| 2026-05-07 19:46 | 50.99183 | -0.18858 | 7068 ft | 240 kts | 270° |
| 2026-05-07 19:47 | 50.99198 | -0.21506 | 7070 ft | 239 kts | 270° |
| 2026-05-07 19:47 | 50.99213 | -0.24142 | 7068 ft | 239 kts | 270° |
| 2026-05-07 19:47 | 50.99227 | -0.26807 | 6842 ft | 244 kts | 270° |
| 2026-05-07 19:47 | 50.99239 | -0.29481 | 6470 ft | 241 kts | 270° |
| 2026-05-07 19:48 | 50.99246 | -0.32133 | 6029 ft | 240 kts | 270° |
| 2026-05-07 19:48 | 50.99252 | -0.34778 | 5571 ft | 240 kts | 270° |
| 2026-05-07 19:48 | 50.99259 | -0.37430 | 5154 ft | 240 kts | 270° |
| 2026-05-07 19:48 | 50.99267 | -0.40078 | 4725 ft | 242 kts | 270° |
| 2026-05-07 19:49 | 50.99277 | -0.42769 | 4279 ft | 245 kts | 270° |
| 2026-05-07 19:49 | 50.99287 | -0.45450 | 4001 ft | 240 kts | 270° |
| 2026-05-07 19:49 | 50.99298 | -0.48064 | 3965 ft | 236 kts | 270° |
| 2026-05-07 19:49 | 50.99549 | -0.50607 | 3950 ft | 230 kts | 295° |
| 2026-05-07 19:50 | 51.00547 | -0.52396 | 3987 ft | 210 kts | 332° |
| 2026-05-07 19:50 | 51.01896 | -0.52930 | 3991 ft | 194 kts | 0° |
| 2026-05-07 19:50 | 51.03149 | -0.52375 | 3981 ft | 187 kts | 37° |
| 2026-05-07 19:50 | 51.03915 | -0.50766 | 3999 ft | 184 kts | 73° |
| 2026-05-07 19:51 | 51.04035 | -0.48760 | 4005 ft | 184 kts | 90° |
| 2026-05-07 19:51 | 51.04040 | -0.46721 | 3994 ft | 184 kts | 90° |
| 2026-05-07 19:51 | 51.04041 | -0.44693 | 3993 ft | 184 kts | 90° |
| 2026-05-07 19:51 | 51.04041 | -0.42662 | 3995 ft | 185 kts | 90° |
| 2026-05-07 19:52 | 51.04041 | -0.40654 | 3992 ft | 184 kts | 90° |
| 2026-05-07 19:52 | 51.04040 | -0.38621 | 3995 ft | 184 kts | 90° |
| 2026-05-07 19:52 | 51.04040 | -0.36574 | 3996 ft | 185 kts | 90° |
| 2026-05-07 19:52 | 51.04040 | -0.34511 | 3998 ft | 184 kts | 90° |
| 2026-05-07 19:53 | 51.04019 | -0.32502 | 3987 ft | 184 kts | 98° |
| 2026-05-07 19:53 | 51.03448 | -0.30687 | 4000 ft | 185 kts | 135° |
| 2026-05-07 19:53 | 51.02316 | -0.29813 | 4004 ft | 188 kts | 172° |
| 2026-05-07 19:53 | 51.01039 | -0.30194 | 4005 ft | 192 kts | 208° |
| 2026-05-07 19:54 | 51.00137 | -0.31726 | 4004 ft | 194 kts | 245° |
| 2026-05-07 19:54 | 50.99969 | -0.33823 | 3981 ft | 195 kts | 281° |
| 2026-05-07 19:54 | 51.00291 | -0.35908 | 3986 ft | 196 kts | 285° |
| 2026-05-07 19:54 | 51.00642 | -0.37993 | 3977 ft | 195 kts | 285° |
| 2026-05-07 19:55 | 51.00993 | -0.40075 | 3945 ft | 197 kts | 285° |
| 2026-05-07 19:55 | 51.01352 | -0.42200 | 3717 ft | 201 kts | 285° |
| 2026-05-07 19:55 | 51.01717 | -0.44358 | 3465 ft | 203 kts | 285° |
| 2026-05-07 19:55 | 51.02086 | -0.46533 | 3212 ft | 205 kts | 285° |
| 2026-05-07 19:56 | 51.02460 | -0.48731 | 3022 ft | 204 kts | 285° |
| 2026-05-07 19:56 | 51.02825 | -0.50865 | 2979 ft | 196 kts | 285° |
| 2026-05-07 19:56 | 51.03185 | -0.52936 | 2984 ft | 195 kts | 288° |
| 2026-05-07 19:56 | 51.03975 | -0.54626 | 2992 ft | 192 kts | 328° |
| 2026-05-07 19:57 | 51.05226 | -0.55143 | 3003 ft | 188 kts | 8° |
| 2026-05-07 19:57 | 51.06385 | -0.54313 | 3009 ft | 183 kts | 42° |
| 2026-05-07 19:57 | 51.07321 | -0.52938 | 2998 ft | 184 kts | 45° |
| 2026-05-07 19:57 | 51.08260 | -0.51564 | 2988 ft | 183 kts | 44° |
| 2026-05-07 19:58 | 51.09227 | -0.50227 | 2988 ft | 184 kts | 42° |
| 2026-05-07 19:58 | 51.10199 | -0.48912 | 2987 ft | 183 kts | 46° |
| 2026-05-07 19:58 | 51.10802 | -0.47173 | 3007 ft | 180 kts | 73° |
| 2026-05-07 19:58 | 51.11137 | -0.45237 | 2996 ft | 181 kts | 77° |
| 2026-05-07 19:59 | 51.11427 | -0.43290 | 2971 ft | 182 kts | 77° |
| 2026-05-07 19:59 | 51.11721 | -0.41265 | 2589 ft | 192 kts | 78° |
| 2026-05-07 19:59 | 51.12018 | -0.39156 | 2218 ft | 198 kts | 78° |
| 2026-05-07 19:59 | 51.12317 | -0.37022 | 1935 ft | 197 kts | 78° |
| 2026-05-07 20:00 | 51.12610 | -0.34924 | 1707 ft | 190 kts | 78° |
| 2026-05-07 20:00 | 51.12887 | -0.32935 | 1502 ft | 178 kts | 79° |
| 2026-05-07 20:00 | 51.13145 | -0.31079 | 1325 ft | 167 kts | 79° |
| 2026-05-07 20:00 | 51.13388 | -0.29333 | 1124 ft | 157 kts | 79° |
| 2026-05-07 20:01 | 51.13611 | -0.27723 | 970 ft | 140 kts | 78° |
| 2026-05-07 20:01 | 51.13818 | -0.26233 | 823 ft | 137 kts | 78° |
| 2026-05-07 20:01 | 51.14019 | -0.24772 | 680 ft | 134 kts | 78° |
| 2026-05-07 20:01 | 51.14218 | -0.23320 | 540 ft | 134 kts | 77° |
| 2026-05-07 20:02 | 51.14433 | -0.21712 | 695 ft | 166 kts | 79° |
| 2026-05-07 20:02 | 51.14653 | -0.19880 | 1243 ft | 176 kts | 80° |
| 2026-05-07 20:02 | 51.14891 | -0.17854 | 1701 ft | 195 kts | 81° |
| 2026-05-07 20:02 | 51.15108 | -0.15709 | 2497 ft | 198 kts | 90° |
| 2026-05-07 20:03 | 51.14744 | -0.13531 | 2971 ft | 218 kts | 118° |
| 2026-05-07 20:03 | 51.13631 | -0.11828 | 3019 ft | 226 kts | 154° |
| 2026-05-07 20:03 | 51.12095 | -0.11530 | 3020 ft | 230 kts | 190° |
| 2026-05-07 20:03 | 51.10710 | -0.12714 | 3024 ft | 230 kts | 219° |
| 2026-05-07 20:04 | 51.09486 | -0.14410 | 3008 ft | 231 kts | 220° |
| 2026-05-07 20:04 | 51.08291 | -0.16079 | 2992 ft | 221 kts | 220° |
| 2026-05-07 20:04 | 51.07186 | -0.17631 | 2984 ft | 204 kts | 220° |
| 2026-05-07 20:04 | 51.06159 | -0.19079 | 2991 ft | 192 kts | 220° |
| 2026-05-07 20:05 | 51.05161 | -0.20491 | 3004 ft | 193 kts | 220° |
| 2026-05-07 20:05 | 51.04162 | -0.21904 | 2993 ft | 191 kts | 220° |
| 2026-05-07 20:05 | 51.03184 | -0.23287 | 3001 ft | 191 kts | 220° |
| 2026-05-07 20:05 | 51.02423 | -0.25033 | 2995 ft | 193 kts | 253° |
| 2026-05-07 20:06 | 51.02170 | -0.27097 | 3008 ft | 194 kts | 260° |
| 2026-05-07 20:06 | 51.01952 | -0.29214 | 2997 ft | 194 kts | 260° |
| 2026-05-07 20:06 | 51.01737 | -0.31327 | 2996 ft | 194 kts | 260° |
| 2026-05-07 20:06 | 51.01521 | -0.33439 | 2995 ft | 194 kts | 260° |
| 2026-05-07 20:07 | 51.01308 | -0.35557 | 2998 ft | 195 kts | 260° |
| 2026-05-07 20:07 | 51.01096 | -0.37678 | 2993 ft | 194 kts | 260° |
| 2026-05-07 20:07 | 51.00884 | -0.39801 | 2979 ft | 194 kts | 260° |
| 2026-05-07 20:07 | 51.00673 | -0.41916 | 2980 ft | 194 kts | 260° |
| 2026-05-07 20:08 | 51.00461 | -0.44039 | 2980 ft | 195 kts | 260° |
| 2026-05-07 20:08 | 51.00252 | -0.46163 | 2978 ft | 195 kts | 260° |
| 2026-05-07 20:08 | 51.00251 | -0.48289 | 2973 ft | 196 kts | 287° |
| 2026-05-07 20:08 | 51.00986 | -0.50057 | 2986 ft | 193 kts | 323° |
| 2026-05-07 20:09 | 51.02177 | -0.51006 | 2997 ft | 192 kts | 340° |
| 2026-05-07 20:09 | 51.03423 | -0.51794 | 2990 ft | 193 kts | 340° |
| 2026-05-07 20:09 | 51.04670 | -0.52578 | 2987 ft | 192 kts | 340° |
| 2026-05-07 20:10 | 51.07213 | -0.53124 | 2995 ft | 186 kts | 27° |
| 2026-05-07 20:10 | 51.08271 | -0.51976 | 3006 ft | 185 kts | 40° |
| 2026-05-07 20:10 | 51.09289 | -0.50710 | 2997 ft | 185 kts | 40° |
| 2026-05-07 20:10 | 51.10231 | -0.49348 | 2997 ft | 182 kts | 51° |
| 2026-05-07 20:11 | 51.10866 | -0.47625 | 3003 ft | 182 kts | 75° |
| 2026-05-07 20:11 | 51.11155 | -0.45666 | 2999 ft | 182 kts | 80° |
| 2026-05-07 20:11 | 51.11400 | -0.43711 | 2809 ft | 185 kts | 79° |
| 2026-05-07 20:11 | 51.11668 | -0.41669 | 2470 ft | 191 kts | 78° |
| 2026-05-07 20:12 | 51.11955 | -0.39603 | 2207 ft | 189 kts | 78° |
| 2026-05-07 20:12 | 51.12236 | -0.37605 | 1994 ft | 182 kts | 78° |
| 2026-05-07 20:12 | 51.12511 | -0.35639 | 1792 ft | 181 kts | 78° |
| 2026-05-07 20:12 | 51.12777 | -0.33730 | 1581 ft | 172 kts | 79° |
| 2026-05-07 20:13 | 51.13028 | -0.31924 | 1394 ft | 164 kts | 79° |
| 2026-05-07 20:13 | 51.13269 | -0.30189 | 1222 ft | 157 kts | 79° |
| 2026-05-07 20:13 | 51.13494 | -0.28577 | 1047 ft | 142 kts | 79° |
| 2026-05-07 20:13 | 51.13700 | -0.27082 | 913 ft | 137 kts | 78° |
| 2026-05-07 20:14 | 51.13903 | -0.25619 | 766 ft | 134 kts | 78° |
| 2026-05-07 20:14 | 51.14104 | -0.24165 | 619 ft | 134 kts | 78° |
| 2026-05-07 20:14 | 51.14299 | -0.22713 | 468 ft | 134 kts | 78° |
| 2026-05-07 20:14 | 51.14495 | -0.21273 | 305 ft | 135 kts | 77° |
| 2026-05-07 20:15 | 51.14692 | -0.19894 | 207 ft | 104 kts | 78° |
| 2026-05-07 20:15 | 51.14808 | -0.19033 | 208 ft | 54 kts | 78° |
| 2026-05-07 20:15 | 51.14921 | -0.18544 | 204 ft | 50 kts | 51° |
| 2026-05-07 20:15 | 51.15045 | -0.18300 | 210 ft | 0 kts | 47° |
| 2026-05-07 20:17 | 51.15046 | -0.18300 | 210 ft | 1 kts | 47° |
| 2026-05-07 20:17 | 51.15059 | -0.18274 | 211 ft | 9 kts | 52° |
| 2026-05-07 20:18 | 51.15108 | -0.18163 | 208 ft | 13 kts | 62° |
| 2026-05-07 20:18 | 51.15132 | -0.18018 | 215 ft | 15 kts | 78° |
| 2026-05-07 20:18 | 51.15157 | -0.17838 | 207 ft | 18 kts | 78° |
| 2026-05-07 20:18 | 51.15184 | -0.17642 | 207 ft | 19 kts | 77° |
| 2026-05-07 20:19 | 51.15213 | -0.17440 | 206 ft | 13 kts | 76° |
| 2026-05-07 20:19 | 51.15215 | -0.17427 | 206 ft | 0 kts | 76° |
| 2026-05-07 20:20 | 51.15219 | -0.17401 | 215 ft | 6 kts | 72° |
| 2026-05-07 20:20 | 51.15244 | -0.17352 | 215 ft | 5 kts | 26° |
| 2026-05-07 20:21 | 51.15283 | -0.17345 | 206 ft | 6 kts | 354° |
| 2026-05-07 20:21 | 51.15334 | -0.17357 | 209 ft | 8 kts | 350° |
| 2026-05-07 20:21 | 51.15397 | -0.17381 | 211 ft | 10 kts | 346° |
| 2026-05-07 20:21 | 51.15475 | -0.17409 | 208 ft | 12 kts | 347° |
| 2026-05-07 20:22 | 51.15565 | -0.17440 | 206 ft | 14 kts | 348° |
| 2026-05-07 20:22 | 51.15664 | -0.17474 | 215 ft | 13 kts | 348° |
| 2026-05-07 20:22 | 51.15745 | -0.17480 | 206 ft | 11 kts | 33° |
| 2026-05-07 20:22 | 51.15774 | -0.17384 | 208 ft | 9 kts | 77° |
| 2026-05-07 20:23 | 51.15786 | -0.17348 | 209 ft | 2 kts | 40° |
| 2026-05-07 20:23 | 51.15799 | -0.17334 | 211 ft | 3 kts | 32° |
| 2026-05-07 20:23 | 51.15820 | -0.17312 | 212 ft | 5 kts | 37° |
| 2026-05-07 20:23 | 51.15849 | -0.17298 | 208 ft | 4 kts | 4° |
| 2026-05-07 20:24 | 51.15864 | -0.17302 | 206 ft | 3 kts | 352° |
| 2026-05-07 20:24 | 51.15877 | -0.17306 | 206 ft | 0 kts | 348° |